Airfield :







YOU CAN JOIN US ON...

 
LOGIN :

Register | Disclaimer

   EN    FR    IT 

 









Legend :    VFR   Marginal VFR   IFR   Intensive IFR   Very Intensive IFR
Visi :
Ceiling :
>= 8 km
>= 3000ft
5 to 8 km
1000 to 3000 ft
1500m to 5 km
500 to 1000 ft
800 to 1500m
200 to 500 ft
< 800m
< 200 ft
Symbols :   Thunderstorms  Fog  Heavy snow  Heavy precipitations  Wind > 20 kt






- Airport Elevation : 172 ft
- IATA code : YYY


CYYY - Mont Joli

CURRENT METAR :
  • 251800Z 25011KT 30SM FEW240 12/03 A3006 RMK CI2 SLP183

EXPIRED METARs :
  • 251700Z 25011KT 30SM BKN240 11/01 A3007 RMK CI5 SLP186
  • 251600Z 25012KT 30SM FEW240 11/01 A3008 RMK CI2 SLP191

TAF TAF CYYY
Valid from the 25 at 14:00 until the 26 at 02:00 UTC


251339Z 2514/2602 25015G25KT P6SM SKC
BECMG 2522/2524 21010KT RMK NXT FCST BY 252000Z
CZUL FIR / North America



MET'MAP, your aeronautical weather chart ! - Copyright ORBIFLY December 2007 - Disclaimer

ORBIFLY MET'MAP TEAM :

Programming & Development : Alexandra Zaïnal
Concept & original design : Baudouin d'Aumeries
Assistance for programming : Marc-Olivier Méhu
Technical & hardware support : Manuel Goepfert

Contact : metmap@orbifly.com




SOURCES & CREDITS :

   NOAA